sensor_id;sensor_type;location;lat;lon;timestamp;pressure;altitude;pressure_sealevel;temperature;humidity
9261;BME280;4667;42.726;23.252;2023-09-07T00:01:54;95461.44;;;19.75;56.93
9261;BME280;4667;42.726;23.252;2023-09-07T00:04:21;95475.81;;;19.79;56.98
9261;BME280;4667;42.726;23.252;2023-09-07T00:06:58;95676.38;;;21.08;56.66
9261;BME280;4667;42.726;23.252;2023-09-07T00:09:25;95407.16;;;19.33;56.88
9261;BME280;4667;42.726;23.252;2023-09-07T00:11:52;95357.53;;;18.86;56.92
9261;BME280;4667;42.726;23.252;2023-09-07T00:14:19;95238.94;;;18.13;57.08
9261;BME280;4667;42.726;23.252;2023-09-07T00:16:46;95640.47;;;20.73;57.37
9261;BME280;4667;42.726;23.252;2023-09-07T00:19:14;95598.69;;;20.58;57.07
9261;BME280;4667;42.726;23.252;2023-09-07T00:21:41;95616.84;;;20.61;56.90
9261;BME280;4667;42.726;23.252;2023-09-07T00:24:08;95674.25;;;20.96;57.22
9261;BME280;4667;42.726;23.252;2023-09-07T00:26:35;95359.63;;;18.89;56.92
9261;BME280;4667;42.726;23.252;2023-09-07T00:29:02;95682.09;;;20.93;56.14
9261;BME280;4667;42.726;23.252;2023-09-07T00:31:32;95407.06;;;19.11;56.28
9261;BME280;4667;42.726;23.252;2023-09-07T00:34:00;95529.91;;;19.90;56.28
9261;BME280;4667;42.726;23.252;2023-09-07T00:36:32;95560.53;;;20.11;56.21
9261;BME280;4667;42.726;23.252;2023-09-07T00:39:00;95651.09;;;20.64;56.69
9261;BME280;4667;42.726;23.252;2023-09-07T00:41:30;95637.72;;;20.50;56.79
9261;BME280;4667;42.726;23.252;2023-09-07T00:44:02;95592.56;;;20.30;56.79
9261;BME280;4667;42.726;23.252;2023-09-07T00:46:30;95247.69;;;18.00;56.46
9261;BME280;4667;42.726;23.252;2023-09-07T00:48:58;95249.78;;;18.03;57.63
9261;BME280;4667;42.726;23.252;2023-09-07T00:51:25;95490.09;;;19.61;57.60
9261;BME280;4667;42.726;23.252;2023-09-07T00:53:54;95225.84;;;17.84;57.85
9261;BME280;4667;42.726;23.252;2023-09-07T00:56:21;95029.31;;;16.54;57.98
9261;BME280;4667;42.726;23.252;2023-09-07T00:58:48;95662.72;;;20.60;58.33
9261;BME280;4667;42.726;23.252;2023-09-07T01:01:15;95567.69;;;19.88;58.73
9261;BME280;4667;42.726;23.252;2023-09-07T01:03:42;95332.97;;;18.24;58.93
9261;BME280;4667;42.726;23.252;2023-09-07T01:06:13;95686.41;;;20.66;59.26
9261;BME280;4667;42.726;23.252;2023-09-07T01:08:45;95684.44;;;20.58;59.60
9261;BME280;4667;42.726;23.252;2023-09-07T01:11:14;95461.09;;;19.08;60.09
9261;BME280;4667;42.726;23.252;2023-09-07T01:13:41;95686.44;;;20.53;60.06
9261;BME280;4667;42.726;23.252;2023-09-07T01:16:09;95679.31;;;20.48;60.34
9261;BME280;4667;42.726;23.252;2023-09-07T01:18:37;95610.53;;;20.02;60.37
9261;BME280;4667;42.726;23.252;2023-09-07T01:21:05;95675.28;;;20.45;60.41
9261;BME280;4667;42.726;23.252;2023-09-07T01:23:35;95207.00;;;17.42;60.92
9261;BME280;4667;42.726;23.252;2023-09-07T01:26:03;95686.09;;;20.40;60.95
9261;BME280;4667;42.726;23.252;2023-09-07T01:28:30;95610.13;;;19.95;61.37
9261;BME280;4667;42.726;23.252;2023-09-07T01:30:57;95672.72;;;20.40;61.47
9261;BME280;4667;42.726;23.252;2023-09-07T01:33:24;95692.25;;;20.41;61.35
9261;BME280;4667;42.726;23.252;2023-09-07T01:35:50;95607.63;;;19.85;61.27
9261;BME280;4667;42.726;23.252;2023-09-07T01:38:17;95692.88;;;20.38;61.63
9261;BME280;4667;42.726;23.252;2023-09-07T01:40:47;95356.09;;;18.14;61.80
9261;BME280;4667;42.726;23.252;2023-09-07T01:43:15;95689.28;;;20.29;61.91
9261;BME280;4667;42.726;23.252;2023-09-07T01:45:42;95050.72;;;16.25;61.50
9261;BME280;4667;42.726;23.252;2023-09-07T01:48:11;95236.81;;;17.45;61.60
9261;BME280;4667;42.726;23.252;2023-09-07T01:50:38;95674.59;;;20.26;61.89
9261;BME280;4667;42.726;23.252;2023-09-07T01:53:05;95537.31;;;19.38;62.22
9261;BME280;4667;42.726;23.252;2023-09-07T01:55:32;95537.28;;;19.24;61.52
9261;BME280;4667;42.726;23.252;2023-09-07T01:58:01;95601.28;;;19.81;61.85
9261;BME280;4667;42.726;23.252;2023-09-07T02:00:28;95680.16;;;20.30;62.02
9261;BME280;4667;42.726;23.252;2023-09-07T02:02:55;95682.25;;;20.33;61.83
9261;BME280;4667;42.726;23.252;2023-09-07T02:05:23;95063.91;;;16.35;61.60
9261;BME280;4667;42.726;23.252;2023-09-07T02:07:49;95564.13;;;19.33;62.60
9261;BME280;4667;42.726;23.252;2023-09-07T02:10:17;95407.09;;;18.45;61.96
9261;BME280;4667;42.726;23.252;2023-09-07T02:12:45;95625.00;;;20.01;61.72
9261;BME280;4667;42.726;23.252;2023-09-07T02:15:13;95679.06;;;20.31;61.81
9261;BME280;4667;42.726;23.252;2023-09-07T02:17:41;95677.00;;;20.28;61.97
9261;BME280;4667;42.726;23.252;2023-09-07T02:20:11;95027.56;;;16.06;61.69
9261;BME280;4667;42.726;23.252;2023-09-07T02:22:38;95469.78;;;18.86;62.13
9261;BME280;4667;42.726;23.252;2023-09-07T02:25:05;95685.72;;;20.19;62.46
9261;BME280;4667;42.726;23.252;2023-09-07T02:27:33;95624.31;;;19.82;62.34
9261;BME280;4667;42.726;23.252;2023-09-07T02:30:00;95692.75;;;20.15;62.43
9261;BME280;4667;42.726;23.252;2023-09-07T02:32:28;95665.75;;;19.98;62.70
9261;BME280;4667;42.726;23.252;2023-09-07T02:34:55;95657.13;;;20.01;62.78
9261;BME280;4667;42.726;23.252;2023-09-07T02:37:22;95682.53;;;20.17;62.61
9261;BME280;4667;42.726;23.252;2023-09-07T02:39:48;95663.97;;;19.93;62.94
9261;BME280;4667;42.726;23.252;2023-09-07T02:42:15;95641.44;;;19.81;63.05
9261;BME280;4667;42.726;23.252;2023-09-07T02:44:42;95634.09;;;19.72;63.07
9261;BME280;4667;42.726;23.252;2023-09-07T02:47:08;95660.59;;;19.88;63.19
9261;BME280;4667;42.726;23.252;2023-09-07T02:49:37;95691.34;;;20.04;63.59
9261;BME280;4667;42.726;23.252;2023-09-07T02:52:04;95609.88;;;19.50;63.54
9261;BME280;4667;42.726;23.252;2023-09-07T02:54:31;95686.88;;;19.99;63.69
9261;BME280;4667;42.726;23.252;2023-09-07T02:56:57;95690.16;;;19.96;63.75
9261;BME280;4667;42.726;23.252;2023-09-07T02:59:24;95687.47;;;19.96;63.92
9261;BME280;4667;42.726;23.252;2023-09-07T03:01:50;95696.00;;;19.98;63.95
9261;BME280;4667;42.726;23.252;2023-09-07T03:04:17;95692.09;;;19.91;63.89
9261;BME280;4667;42.726;23.252;2023-09-07T03:06:45;95698.28;;;19.91;64.22
9261;BME280;4667;42.726;23.252;2023-09-07T03:09:12;95456.13;;;18.36;64.06
9261;BME280;4667;42.726;23.252;2023-09-07T03:11:39;95683.28;;;19.77;64.14
9261;BME280;4667;42.726;23.252;2023-09-07T03:14:06;95685.88;;;19.82;64.09
9261;BME280;4667;42.726;23.252;2023-09-07T03:16:33;95599.69;;;19.33;64.07
9261;BME280;4667;42.726;23.252;2023-09-07T03:18:59;95702.22;;;19.94;64.29
9261;BME280;4667;42.726;23.252;2023-09-07T03:21:26;95696.41;;;19.92;64.51
9261;BME280;4667;42.726;23.252;2023-09-07T03:23:56;95537.59;;;18.90;63.95
9261;BME280;4667;42.726;23.252;2023-09-07T03:26:23;95696.78;;;19.99;64.62
9261;BME280;4667;42.726;23.252;2023-09-07T03:28:50;95642.78;;;19.64;64.27
9261;BME280;4667;42.726;23.252;2023-09-07T03:31:17;95701.94;;;19.95;64.85
9261;BME280;4667;42.726;23.252;2023-09-07T03:33:43;95582.53;;;19.20;64.74
9261;BME280;4667;42.726;23.252;2023-09-07T03:36:10;95670.78;;;19.72;64.72
9261;BME280;4667;42.726;23.252;2023-09-07T03:38:39;95644.81;;;19.54;65.49
9261;BME280;4667;42.726;23.252;2023-09-07T03:41:07;95695.78;;;19.81;65.56
9261;BME280;4667;42.726;23.252;2023-09-07T03:43:34;95668.53;;;19.60;65.95
9261;BME280;4667;42.726;23.252;2023-09-07T03:46:00;95562.81;;;18.84;66.83
9261;BME280;4667;42.726;23.252;2023-09-07T03:48:27;95705.25;;;19.73;66.59
9261;BME280;4667;42.726;23.252;2023-09-07T03:50:54;95699.03;;;19.78;66.24
9261;BME280;4667;42.726;23.252;2023-09-07T03:53:20;95706.28;;;19.78;66.23
9261;BME280;4667;42.726;23.252;2023-09-07T03:55:47;95664.81;;;19.42;66.50
9261;BME280;4667;42.726;23.252;2023-09-07T03:58:15;95721.91;;;19.70;66.74
9261;BME280;4667;42.726;23.252;2023-09-07T04:00:42;95721.41;;;19.68;67.00
9261;BME280;4667;42.726;23.252;2023-09-07T04:03:09;95604.41;;;18.90;67.03
9261;BME280;4667;42.726;23.252;2023-09-07T04:05:37;95672.78;;;19.29;67.46
9261;BME280;4667;42.726;23.252;2023-09-07T04:08:04;95695.97;;;19.33;67.91
9261;BME280;4667;42.726;23.252;2023-09-07T04:10:31;95711.22;;;19.33;68.01
9261;BME280;4667;42.726;23.252;2023-09-07T04:12:57;95728.44;;;19.45;68.42
9261;BME280;4667;42.726;23.252;2023-09-07T04:15:25;95723.44;;;19.39;68.91
9261;BME280;4667;42.726;23.252;2023-09-07T04:17:52;95726.97;;;19.34;69.21
9261;BME280;4667;42.726;23.252;2023-09-07T04:20:20;95723.03;;;19.32;69.63
9261;BME280;4667;42.726;23.252;2023-09-07T04:22:47;95726.72;;;19.36;70.06
9261;BME280;4667;42.726;23.252;2023-09-07T04:25:14;95724.81;;;19.36;69.50
9261;BME280;4667;42.726;23.252;2023-09-07T04:27:40;95716.00;;;19.36;69.76
9261;BME280;4667;42.726;23.252;2023-09-07T04:30:08;95718.16;;;19.34;69.37
9261;BME280;4667;42.726;23.252;2023-09-07T04:32:36;95686.75;;;19.07;69.48
9261;BME280;4667;42.726;23.252;2023-09-07T04:35:04;95730.47;;;19.35;69.67
9261;BME280;4667;42.726;23.252;2023-09-07T04:37:31;95704.03;;;19.14;69.57
9261;BME280;4667;42.726;23.252;2023-09-07T04:39:58;95730.03;;;19.28;69.59
9261;BME280;4667;42.726;23.252;2023-09-07T04:42:26;95742.22;;;19.34;69.64
9261;BME280;4667;42.726;23.252;2023-09-07T04:44:52;95606.69;;;18.40;69.56
9261;BME280;4667;42.726;23.252;2023-09-07T04:47:19;95738.28;;;19.31;69.72
9261;BME280;4667;42.726;23.252;2023-09-07T04:49:50;95761.56;;;19.31;69.26
9261;BME280;4667;42.726;23.252;2023-09-07T04:52:16;95631.53;;;18.59;69.08
9261;BME280;4667;42.726;23.252;2023-09-07T04:54:43;95649.53;;;18.73;69.29
9261;BME280;4667;42.726;23.252;2023-09-07T04:57:10;95601.63;;;18.38;69.81
9261;BME280;4667;42.726;23.252;2023-09-07T04:59:37;95752.66;;;19.35;69.50
9261;BME280;4667;42.726;23.252;2023-09-07T05:02:04;95758.00;;;19.35;69.23
9261;BME280;4667;42.726;23.252;2023-09-07T05:04:30;95758.50;;;19.37;69.38
9261;BME280;4667;42.726;23.252;2023-09-07T05:06:58;95755.84;;;19.37;69.76
9261;BME280;4667;42.726;23.252;2023-09-07T05:09:25;95733.00;;;19.26;69.71
9261;BME280;4667;42.726;23.252;2023-09-07T05:11:54;95675.41;;;18.96;69.96
9261;BME280;4667;42.726;23.252;2023-09-07T05:14:21;95746.16;;;19.41;69.18
9261;BME280;4667;42.726;23.252;2023-09-07T05:16:47;95741.81;;;19.45;68.87
9261;BME280;4667;42.726;23.252;2023-09-07T05:19:14;95720.00;;;19.19;69.02
9261;BME280;4667;42.726;23.252;2023-09-07T05:21:44;95757.25;;;19.48;68.63
9261;BME280;4667;42.726;23.252;2023-09-07T05:24:13;95744.69;;;19.49;68.81
9261;BME280;4667;42.726;23.252;2023-09-07T05:26:41;95693.13;;;19.11;68.51
9261;BME280;4667;42.726;23.252;2023-09-07T05:29:08;95639.63;;;18.73;67.33
9261;BME280;4667;42.726;23.252;2023-09-07T05:31:35;95729.81;;;19.24;68.33
9261;BME280;4667;42.726;23.252;2023-09-07T05:34:02;95750.91;;;19.44;68.14
9261;BME280;4667;42.726;23.252;2023-09-07T05:36:30;95714.34;;;19.21;67.87
9261;BME280;4667;42.726;23.252;2023-09-07T05:38:56;95744.13;;;19.52;68.08
9261;BME280;4667;42.726;23.252;2023-09-07T05:41:25;95711.16;;;19.38;68.22
9261;BME280;4667;42.726;23.252;2023-09-07T05:43:52;95753.09;;;19.61;68.08
9261;BME280;4667;42.726;23.252;2023-09-07T05:46:19;95744.19;;;19.66;67.65
9261;BME280;4667;42.726;23.252;2023-09-07T05:48:46;95755.09;;;19.69;67.30
9261;BME280;4667;42.726;23.252;2023-09-07T05:51:13;95747.50;;;19.77;66.75
9261;BME280;4667;42.726;23.252;2023-09-07T05:53:39;95726.75;;;19.68;66.35
9261;BME280;4667;42.726;23.252;2023-09-07T05:56:06;95717.63;;;19.69;65.17
9261;BME280;4667;42.726;23.252;2023-09-07T05:58:34;95760.84;;;19.95;64.67
9261;BME280;4667;42.726;23.252;2023-09-07T06:01:01;95622.13;;;19.18;64.39
9261;BME280;4667;42.726;23.252;2023-09-07T06:03:28;95756.63;;;20.08;64.02
9261;BME280;4667;42.726;23.252;2023-09-07T06:05:55;95750.88;;;20.15;63.53
9261;BME280;4667;42.726;23.252;2023-09-07T06:08:21;95758.41;;;20.26;62.62
9261;BME280;4667;42.726;23.252;2023-09-07T06:10:48;95756.66;;;20.36;62.81
9261;BME280;4667;42.726;23.252;2023-09-07T06:13:15;95674.47;;;19.90;62.12
9261;BME280;4667;42.726;23.252;2023-09-07T06:15:43;95711.03;;;20.27;61.54
9261;BME280;4667;42.726;23.252;2023-09-07T06:18:09;95746.78;;;20.64;61.08
9261;BME280;4667;42.726;23.252;2023-09-07T06:20:36;95685.50;;;20.30;59.37
9261;BME280;4667;42.726;23.252;2023-09-07T06:23:03;95752.59;;;20.93;59.32
9261;BME280;4667;42.726;23.252;2023-09-07T06:25:30;95754.06;;;21.13;58.99
9261;BME280;4667;42.726;23.252;2023-09-07T06:27:56;95758.53;;;21.32;58.20
9261;BME280;4667;42.726;23.252;2023-09-07T06:30:23;95760.75;;;21.52;56.99
9261;BME280;4667;42.726;23.252;2023-09-07T06:32:51;95759.69;;;21.75;56.73
9261;BME280;4667;42.726;23.252;2023-09-07T06:35:18;95758.81;;;21.89;55.83
9261;BME280;4667;42.726;23.252;2023-09-07T06:37:45;95764.69;;;21.91;55.46
9261;BME280;4667;42.726;23.252;2023-09-07T06:40:12;95627.22;;;21.13;55.46
9261;BME280;4667;42.726;23.252;2023-09-07T06:42:40;95614.22;;;21.06;55.00
9261;BME280;4667;42.726;23.252;2023-09-07T06:45:08;95768.09;;;22.36;55.22
9261;BME280;4667;42.726;23.252;2023-09-07T06:47:35;95770.56;;;22.55;54.60
9261;BME280;4667;42.726;23.252;2023-09-07T06:50:04;95410.53;;;20.25;54.28
9261;BME280;4667;42.726;23.252;2023-09-07T06:52:31;95617.38;;;21.75;54.30
9261;BME280;4667;42.726;23.252;2023-09-07T06:54:58;95683.13;;;22.49;53.73
9261;BME280;4667;42.726;23.252;2023-09-07T06:57:30;95643.25;;;22.42;53.74
9261;BME280;4667;42.726;23.252;2023-09-07T06:59:57;95449.91;;;21.54;52.10
9261;BME280;4667;42.726;23.252;2023-09-07T07:02:23;95763.06;;;23.57;51.10
9261;BME280;4667;42.726;23.252;2023-09-07T07:04:50;95447.69;;;21.47;50.82
9261;BME280;4667;42.726;23.252;2023-09-07T07:07:18;95755.94;;;23.53;51.37
9261;BME280;4667;42.726;23.252;2023-09-07T07:09:45;95629.72;;;22.73;49.71
9261;BME280;4667;42.726;23.252;2023-09-07T07:12:12;95573.84;;;22.27;49.17
9261;BME280;4667;42.726;23.252;2023-09-07T07:14:39;95756.09;;;23.48;49.78
9261;BME280;4667;42.726;23.252;2023-09-07T07:17:05;95752.75;;;23.59;50.46
9261;BME280;4667;42.726;23.252;2023-09-07T07:19:32;95734.22;;;23.58;49.99
9261;BME280;4667;42.726;23.252;2023-09-07T07:21:59;95664.75;;;23.34;49.01
9261;BME280;4667;42.726;23.252;2023-09-07T07:24:27;95362.16;;;21.46;48.51
9261;BME280;4667;42.726;23.252;2023-09-07T07:26:54;95466.03;;;22.20;48.45
9261;BME280;4667;42.726;23.252;2023-09-07T07:29:20;95769.81;;;24.42;48.71
9261;BME280;4667;42.726;23.252;2023-09-07T07:31:47;95623.56;;;23.33;48.21
9261;BME280;4667;42.726;23.252;2023-09-07T07:34:14;95216.53;;;20.80;47.53
9261;BME280;4667;42.726;23.252;2023-09-07T07:37:07;95261.88;;;21.24;46.81
9261;BME280;4667;42.726;23.252;2023-09-07T07:39:36;95808.88;;;24.74;46.32
9261;BME280;4667;42.726;23.252;2023-09-07T07:42:06;95558.94;;;23.42;45.95
9261;BME280;4667;42.726;23.252;2023-09-07T07:44:32;95781.28;;;25.06;45.57
9261;BME280;4667;42.726;23.252;2023-09-07T07:46:59;95743.44;;;24.85;45.81
9261;BME280;4667;42.726;23.252;2023-09-07T07:49:26;95728.59;;;24.71;45.76
9261;BME280;4667;42.726;23.252;2023-09-07T07:51:53;95774.66;;;25.25;45.75
9261;BME280;4667;42.726;23.252;2023-09-07T07:54:20;95483.50;;;23.59;43.84
9261;BME280;4667;42.726;23.252;2023-09-07T07:56:49;95778.13;;;25.55;44.49
9261;BME280;4667;42.726;23.252;2023-09-07T07:59:16;95683.28;;;25.35;42.51
9261;BME280;4667;42.726;23.252;2023-09-07T08:01:43;95774.84;;;26.36;42.31
9261;BME280;4667;42.726;23.252;2023-09-07T08:04:10;95781.66;;;26.55;39.54
9261;BME280;4667;42.726;23.252;2023-09-07T08:06:36;95652.56;;;25.73;39.54
9261;BME280;4667;42.726;23.252;2023-09-07T08:09:04;95770.19;;;26.70;39.89
9261;BME280;4667;42.726;23.252;2023-09-07T08:11:30;95511.41;;;24.85;39.71
9261;BME280;4667;42.726;23.252;2023-09-07T08:14:00;95770.53;;;27.05;39.25
9261;BME280;4667;42.726;23.252;2023-09-07T08:16:27;95656.22;;;26.47;38.36
9261;BME280;4667;42.726;23.252;2023-09-07T08:18:54;95518.91;;;25.91;37.85
9261;BME280;4667;42.726;23.252;2023-09-07T08:21:21;95415.41;;;25.42;36.91
9261;BME280;4667;42.726;23.252;2023-09-07T08:23:47;95536.28;;;26.55;37.42
9261;BME280;4667;42.726;23.252;2023-09-07T08:26:14;95763.97;;;28.55;35.15
9261;BME280;4667;42.726;23.252;2023-09-07T08:28:41;95361.22;;;26.12;34.54
9261;BME280;4667;42.726;23.252;2023-09-07T08:31:13;95752.94;;;28.95;33.64
9261;BME280;4667;42.726;23.252;2023-09-07T08:33:46;95757.56;;;29.11;33.74
9261;BME280;4667;42.726;23.252;2023-09-07T08:36:18;95655.06;;;28.09;33.29
9261;BME280;4667;42.726;23.252;2023-09-07T08:38:47;95764.03;;;28.90;34.00
9261;BME280;4667;42.726;23.252;2023-09-07T08:41:14;95764.50;;;29.08;33.21
9261;BME280;4667;42.726;23.252;2023-09-07T08:43:45;95609.94;;;28.17;33.33
9261;BME280;4667;42.726;23.252;2023-09-07T08:46:15;95765.63;;;29.23;32.76
9261;BME280;4667;42.726;23.252;2023-09-07T08:48:46;95760.69;;;29.64;31.41
9261;BME280;4667;42.726;23.252;2023-09-07T08:51:15;95752.38;;;30.15;30.66
9261;BME280;4667;42.726;23.252;2023-09-07T08:53:42;95686.84;;;30.00;31.54
9261;BME280;4667;42.726;23.252;2023-09-07T08:56:11;95749.81;;;30.68;29.98
9261;BME280;4667;42.726;23.252;2023-09-07T08:58:39;95683.84;;;30.09;29.73
9261;BME280;4667;42.726;23.252;2023-09-07T09:01:06;95753.66;;;30.01;30.34
9261;BME280;4667;42.726;23.252;2023-09-07T09:03:35;95737.22;;;29.75;30.68
9261;BME280;4667;42.726;23.252;2023-09-07T09:06:03;95583.16;;;28.47;30.76
9261;BME280;4667;42.726;23.252;2023-09-07T09:08:30;95449.41;;;27.44;30.77
9261;BME280;4667;42.726;23.252;2023-09-07T09:11:07;95756.94;;;28.86;32.10
9261;BME280;4667;42.726;23.252;2023-09-07T09:13:34;95758.47;;;28.52;32.05
9261;BME280;4667;42.726;23.252;2023-09-07T09:16:01;95478.03;;;26.58;33.47
9261;BME280;4667;42.726;23.252;2023-09-07T09:18:28;95632.72;;;27.40;33.51
9261;BME280;4667;42.726;23.252;2023-09-07T09:20:56;95752.94;;;28.20;32.91
9261;BME280;4667;42.726;23.252;2023-09-07T09:23:24;95666.31;;;27.80;33.39
9261;BME280;4667;42.726;23.252;2023-09-07T09:25:51;95465.09;;;26.79;32.81
9261;BME280;4667;42.726;23.252;2023-09-07T09:28:19;95719.44;;;28.91;31.97
9261;BME280;4667;42.726;23.252;2023-09-07T09:30:46;95741.03;;;29.70;31.96
9261;BME280;4667;42.726;23.252;2023-09-07T09:33:14;95733.47;;;30.22;29.85
9261;BME280;4667;42.726;23.252;2023-09-07T09:35:42;95657.31;;;30.22;29.52
9261;BME280;4667;42.726;23.252;2023-09-07T09:38:13;95569.41;;;30.18;28.76
9261;BME280;4667;42.726;23.252;2023-09-07T09:40:40;95670.88;;;30.68;28.51
9261;BME280;4667;42.726;23.252;2023-09-07T09:43:08;95718.63;;;30.62;28.39
9261;BME280;4667;42.726;23.252;2023-09-07T09:45:35;95689.78;;;29.72;27.44
9261;BME280;4667;42.726;23.252;2023-09-07T09:48:03;95437.03;;;27.94;29.81
9261;BME280;4667;42.726;23.252;2023-09-07T09:50:31;95728.69;;;29.03;30.03
9261;BME280;4667;42.726;23.252;2023-09-07T09:53:00;95726.22;;;28.66;30.74
9261;BME280;4667;42.726;23.252;2023-09-07T09:55:28;95436.38;;;26.47;30.51
9261;BME280;4667;42.726;23.252;2023-09-07T09:57:56;95727.97;;;28.27;31.26
9261;BME280;4667;42.726;23.252;2023-09-07T10:00:23;95598.19;;;27.37;31.10
9261;BME280;4667;42.726;23.252;2023-09-07T10:02:58;95724.72;;;28.21;30.27
9261;BME280;4667;42.726;23.252;2023-09-07T10:05:26;95724.69;;;28.05;30.91
9261;BME280;4667;42.726;23.252;2023-09-07T10:08:00;95416.56;;;25.90;31.42
9261;BME280;4667;42.726;23.252;2023-09-07T10:10:34;95658.16;;;27.24;31.66
9261;BME280;4667;42.726;23.252;2023-09-07T10:13:02;95561.19;;;26.61;33.02
9261;BME280;4667;42.726;23.252;2023-09-07T10:15:29;95713.09;;;27.64;32.86
9261;BME280;4667;42.726;23.252;2023-09-07T10:18:06;95604.66;;;26.92;33.87
9261;BME280;4667;42.726;23.252;2023-09-07T10:20:54;95711.59;;;27.79;33.09
9261;BME280;4667;42.726;23.252;2023-09-07T10:23:22;95282.81;;;25.07;32.28
9261;BME280;4667;42.726;23.252;2023-09-07T10:25:51;95707.97;;;28.03;32.19
9261;BME280;4667;42.726;23.252;2023-09-07T10:28:20;95711.63;;;28.39;32.83
9261;BME280;4667;42.726;23.252;2023-09-07T10:30:58;95709.44;;;28.44;31.49
9261;BME280;4667;42.726;23.252;2023-09-07T10:33:25;95701.63;;;28.74;31.92
9261;BME280;4667;42.726;23.252;2023-09-07T10:35:52;95366.19;;;26.82;30.92
9261;BME280;4667;42.726;23.252;2023-09-07T10:38:19;95662.81;;;28.90;31.90
9261;BME280;4667;42.726;23.252;2023-09-07T10:40:47;95699.16;;;28.85;30.10
9261;BME280;4667;42.726;23.252;2023-09-07T10:43:15;95697.97;;;28.67;30.97
9261;BME280;4667;42.726;23.252;2023-09-07T10:45:44;95487.97;;;27.10;31.29
9261;BME280;4667;42.726;23.252;2023-09-07T10:48:12;95710.44;;;28.24;30.81
9261;BME280;4667;42.726;23.252;2023-09-07T10:50:44;95296.31;;;25.19;32.04
9261;BME280;4667;42.726;23.252;2023-09-07T10:53:12;95306.88;;;25.00;32.75
9261;BME280;4667;42.726;23.252;2023-09-07T10:55:40;95701.91;;;27.66;33.74
9261;BME280;4667;42.726;23.252;2023-09-07T10:58:08;95732.94;;;27.40;33.87
9261;BME280;4667;42.726;23.252;2023-09-07T11:00:37;95629.03;;;26.80;34.00
9261;BME280;4667;42.726;23.252;2023-09-07T11:03:07;95408.78;;;25.15;33.89
9261;BME280;4667;42.726;23.252;2023-09-07T11:05:37;95703.31;;;27.07;34.21
9261;BME280;4667;42.726;23.252;2023-09-07T11:08:05;95706.34;;;27.06;35.08
9261;BME280;4667;42.726;23.252;2023-09-07T11:10:33;95696.69;;;26.92;34.24
9261;BME280;4667;42.726;23.252;2023-09-07T11:13:04;95692.84;;;26.81;34.96
9261;BME280;4667;42.726;23.252;2023-09-07T11:15:31;95697.34;;;26.89;35.55
9261;BME280;4667;42.726;23.252;2023-09-07T11:18:03;95692.72;;;26.90;36.23
9261;BME280;4667;42.726;23.252;2023-09-07T11:20:31;95685.84;;;26.80;35.16
9261;BME280;4667;42.726;23.252;2023-09-07T11:22:58;95681.34;;;26.84;35.66
9261;BME280;4667;42.726;23.252;2023-09-07T11:25:25;95691.25;;;26.92;35.74
9261;BME280;4667;42.726;23.252;2023-09-07T11:27:52;95689.66;;;26.91;35.82
9261;BME280;4667;42.726;23.252;2023-09-07T11:30:20;95690.16;;;26.57;35.88
9261;BME280;4667;42.726;23.252;2023-09-07T11:32:47;95688.09;;;26.41;35.73
9261;BME280;4667;42.726;23.252;2023-09-07T11:35:15;95691.91;;;26.28;36.33
9261;BME280;4667;42.726;23.252;2023-09-07T11:37:42;95685.09;;;26.10;36.54
9261;BME280;4667;42.726;23.252;2023-09-07T11:40:10;95691.84;;;25.91;37.00
9261;BME280;4667;42.726;23.252;2023-09-07T11:42:37;95680.78;;;25.84;37.04
9261;BME280;4667;42.726;23.252;2023-09-07T11:45:07;95692.19;;;25.90;37.73
9261;BME280;4667;42.726;23.252;2023-09-07T11:47:34;95687.66;;;25.82;37.60
9261;BME280;4667;42.726;23.252;2023-09-07T11:50:02;95684.72;;;25.87;37.54
9261;BME280;4667;42.726;23.252;2023-09-07T11:52:30;95682.03;;;25.87;36.67
9261;BME280;4667;42.726;23.252;2023-09-07T11:54:57;95680.31;;;25.82;37.44
9261;BME280;4667;42.726;23.252;2023-09-07T11:57:24;95684.50;;;25.80;37.18
9261;BME280;4667;42.726;23.252;2023-09-07T11:59:50;95681.25;;;25.86;37.32
9261;BME280;4667;42.726;23.252;2023-09-07T12:02:17;95669.97;;;25.84;37.46
9261;BME280;4667;42.726;23.252;2023-09-07T12:04:46;95665.72;;;25.96;36.78
9261;BME280;4667;42.726;23.252;2023-09-07T12:07:13;95673.16;;;25.99;37.40
9261;BME280;4667;42.726;23.252;2023-09-07T12:09:41;95667.53;;;26.04;36.21
9261;BME280;4667;42.726;23.252;2023-09-07T12:12:08;95631.91;;;25.77;36.20
9261;BME280;4667;42.726;23.252;2023-09-07T12:14:36;95588.28;;;25.54;35.97
9261;BME280;4667;42.726;23.252;2023-09-07T12:17:03;95666.09;;;26.06;36.30
9261;BME280;4667;42.726;23.252;2023-09-07T12:19:30;95656.50;;;25.97;36.00
9261;BME280;4667;42.726;23.252;2023-09-07T12:21:59;95661.13;;;26.08;36.55
9261;BME280;4667;42.726;23.252;2023-09-07T12:24:26;95579.47;;;25.45;36.80
9261;BME280;4667;42.726;23.252;2023-09-07T12:26:54;95663.91;;;26.00;36.34
9261;BME280;4667;42.726;23.252;2023-09-07T12:29:21;95666.66;;;26.12;36.32
9261;BME280;4667;42.726;23.252;2023-09-07T12:31:48;95662.16;;;26.28;36.72
9261;BME280;4667;42.726;23.252;2023-09-07T12:34:14;95663.97;;;26.36;36.61
9261;BME280;4667;42.726;23.252;2023-09-07T12:36:41;95619.56;;;26.13;35.77
9261;BME280;4667;42.726;23.252;2023-09-07T12:39:08;95657.22;;;26.55;36.50
9261;BME280;4667;42.726;23.252;2023-09-07T12:41:37;95664.06;;;26.40;35.63
9261;BME280;4667;42.726;23.252;2023-09-07T12:44:06;95638.59;;;26.04;35.78
9261;BME280;4667;42.726;23.252;2023-09-07T12:46:32;95660.13;;;26.13;36.17
9261;BME280;4667;42.726;23.252;2023-09-07T12:48:59;95666.63;;;26.00;35.94
9261;BME280;4667;42.726;23.252;2023-09-07T12:51:26;95583.41;;;25.48;36.34
9261;BME280;4667;42.726;23.252;2023-09-07T12:53:52;95642.06;;;25.92;36.57
9261;BME280;4667;42.726;23.252;2023-09-07T12:56:19;95667.75;;;25.99;35.89
9261;BME280;4667;42.726;23.252;2023-09-07T12:58:46;95665.31;;;26.06;36.31
9261;BME280;4667;42.726;23.252;2023-09-07T13:01:14;95661.81;;;26.05;36.73
9261;BME280;4667;42.726;23.252;2023-09-07T13:03:42;95674.63;;;26.08;36.49
9261;BME280;4667;42.726;23.252;2023-09-07T13:06:08;95675.19;;;26.02;35.90
9261;BME280;4667;42.726;23.252;2023-09-07T13:08:35;95634.75;;;25.81;35.92
9261;BME280;4667;42.726;23.252;2023-09-07T13:11:02;95666.09;;;26.06;36.52
9261;BME280;4667;42.726;23.252;2023-09-07T13:13:29;95678.19;;;25.88;35.91